sensor_id;sensor_type;location;lat;lon;timestamp;P1;durP1;ratioP1;P2;durP2;ratioP2
80332;SDS011;69652;51.864;-2.246;2023-09-08T00:00:29;9.40;;;7.13;;
80332;SDS011;69652;51.864;-2.246;2023-09-08T00:02:55;10.40;;;6.57;;
80332;SDS011;69652;51.864;-2.246;2023-09-08T00:05:20;12.60;;;7.07;;
80332;SDS011;69652;51.864;-2.246;2023-09-08T00:07:46;9.65;;;6.82;;
80332;SDS011;69652;51.864;-2.246;2023-09-08T00:10:12;14.02;;;7.20;;
80332;SDS011;69652;51.864;-2.246;2023-09-08T00:12:38;10.57;;;7.07;;
80332;SDS011;69652;51.864;-2.246;2023-09-08T00:15:03;11.15;;;6.35;;
80332;SDS011;69652;51.864;-2.246;2023-09-08T00:17:31;11.38;;;6.20;;
80332;SDS011;69652;51.864;-2.246;2023-09-08T00:19:57;9.63;;;6.55;;
80332;SDS011;69652;51.864;-2.246;2023-09-08T00:22:23;15.02;;;8.82;;
80332;SDS011;69652;51.864;-2.246;2023-09-08T00:24:48;11.38;;;7.53;;
80332;SDS011;69652;51.864;-2.246;2023-09-08T00:27:14;12.07;;;6.60;;
80332;SDS011;69652;51.864;-2.246;2023-09-08T00:29:39;12.30;;;7.15;;
80332;SDS011;69652;51.864;-2.246;2023-09-08T00:32:05;11.00;;;6.63;;
80332;SDS011;69652;51.864;-2.246;2023-09-08T00:34:30;10.93;;;7.45;;
80332;SDS011;69652;51.864;-2.246;2023-09-08T00:36:56;9.18;;;6.15;;
80332;SDS011;69652;51.864;-2.246;2023-09-08T00:39:21;11.98;;;8.35;;
80332;SDS011;69652;51.864;-2.246;2023-09-08T00:41:47;11.57;;;7.38;;
80332;SDS011;69652;51.864;-2.246;2023-09-08T00:44:12;13.23;;;8.07;;
80332;SDS011;69652;51.864;-2.246;2023-09-08T00:46:38;10.57;;;6.97;;
80332;SDS011;69652;51.864;-2.246;2023-09-08T00:49:05;10.63;;;6.85;;
80332;SDS011;69652;51.864;-2.246;2023-09-08T00:51:31;10.07;;;6.80;;
80332;SDS011;69652;51.864;-2.246;2023-09-08T00:53:57;18.83;;;8.63;;
80332;SDS011;69652;51.864;-2.246;2023-09-08T00:56:23;11.32;;;7.68;;
80332;SDS011;69652;51.864;-2.246;2023-09-08T00:58:48;12.88;;;8.95;;
80332;SDS011;69652;51.864;-2.246;2023-09-08T01:01:15;13.15;;;7.97;;
80332;SDS011;69652;51.864;-2.246;2023-09-08T01:03:42;11.55;;;8.65;;
80332;SDS011;69652;51.864;-2.246;2023-09-08T01:06:08;11.73;;;8.40;;
80332;SDS011;69652;51.864;-2.246;2023-09-08T01:08:34;12.48;;;8.20;;
80332;SDS011;69652;51.864;-2.246;2023-09-08T01:11:01;13.55;;;7.65;;
80332;SDS011;69652;51.864;-2.246;2023-09-08T01:13:27;11.30;;;8.18;;
80332;SDS011;69652;51.864;-2.246;2023-09-08T01:15:52;12.50;;;8.10;;
80332;SDS011;69652;51.864;-2.246;2023-09-08T01:18:18;13.75;;;8.38;;
80332;SDS011;69652;51.864;-2.246;2023-09-08T01:26:11;11.43;;;8.07;;
80332;SDS011;69652;51.864;-2.246;2023-09-08T01:28:42;12.70;;;7.47;;
80332;SDS011;69652;51.864;-2.246;2023-09-08T01:31:10;9.35;;;6.60;;
80332;SDS011;69652;51.864;-2.246;2023-09-08T01:33:36;12.90;;;8.93;;
80332;SDS011;69652;51.864;-2.246;2023-09-08T01:36:02;15.18;;;9.75;;
80332;SDS011;69652;51.864;-2.246;2023-09-08T01:38:28;12.43;;;9.60;;
80332;SDS011;69652;51.864;-2.246;2023-09-08T01:40:53;16.20;;;10.57;;
80332;SDS011;69652;51.864;-2.246;2023-09-08T01:43:19;14.50;;;8.85;;
80332;SDS011;69652;51.864;-2.246;2023-09-08T01:45:44;12.52;;;8.77;;
80332;SDS011;69652;51.864;-2.246;2023-09-08T01:48:10;13.15;;;8.73;;
80332;SDS011;69652;51.864;-2.246;2023-09-08T01:50:35;14.50;;;10.30;;
80332;SDS011;69652;51.864;-2.246;2023-09-08T01:53:00;13.25;;;9.07;;
80332;SDS011;69652;51.864;-2.246;2023-09-08T01:55:26;14.63;;;10.07;;
80332;SDS011;69652;51.864;-2.246;2023-09-08T01:57:51;13.10;;;9.50;;
80332;SDS011;69652;51.864;-2.246;2023-09-08T02:00:17;17.35;;;10.57;;
80332;SDS011;69652;51.864;-2.246;2023-09-08T02:02:42;13.82;;;10.43;;
80332;SDS011;69652;51.864;-2.246;2023-09-08T02:05:08;19.27;;;11.63;;
80332;SDS011;69652;51.864;-2.246;2023-09-08T02:07:34;18.63;;;11.38;;
80332;SDS011;69652;51.864;-2.246;2023-09-08T02:09:59;14.80;;;10.75;;
80332;SDS011;69652;51.864;-2.246;2023-09-08T02:12:25;15.38;;;10.85;;
80332;SDS011;69652;51.864;-2.246;2023-09-08T02:14:50;13.05;;;9.88;;
80332;SDS011;69652;51.864;-2.246;2023-09-08T02:17:17;14.15;;;10.63;;
80332;SDS011;69652;51.864;-2.246;2023-09-08T02:19:42;12.25;;;9.07;;
80332;SDS011;69652;51.864;-2.246;2023-09-08T02:22:08;15.02;;;9.75;;
80332;SDS011;69652;51.864;-2.246;2023-09-08T02:24:34;14.88;;;9.65;;
80332;SDS011;69652;51.864;-2.246;2023-09-08T02:26:59;15.02;;;10.98;;
80332;SDS011;69652;51.864;-2.246;2023-09-08T02:29:25;13.70;;;10.20;;
80332;SDS011;69652;51.864;-2.246;2023-09-08T02:31:50;16.70;;;11.07;;
80332;SDS011;69652;51.864;-2.246;2023-09-08T02:34:16;15.75;;;12.27;;
80332;SDS011;69652;51.864;-2.246;2023-09-08T02:36:42;18.77;;;11.10;;
80332;SDS011;69652;51.864;-2.246;2023-09-08T02:39:08;13.55;;;9.38;;
80332;SDS011;69652;51.864;-2.246;2023-09-08T02:41:33;10.93;;;8.07;;
80332;SDS011;69652;51.864;-2.246;2023-09-08T02:43:59;15.80;;;9.40;;
80332;SDS011;69652;51.864;-2.246;2023-09-08T02:46:24;13.20;;;9.35;;
80332;SDS011;69652;51.864;-2.246;2023-09-08T02:48:50;20.40;;;11.68;;
80332;SDS011;69652;51.864;-2.246;2023-09-08T02:51:16;14.05;;;10.15;;
80332;SDS011;69652;51.864;-2.246;2023-09-08T02:53:42;17.95;;;11.40;;
80332;SDS011;69652;51.864;-2.246;2023-09-08T02:56:07;12.77;;;9.43;;
80332;SDS011;69652;51.864;-2.246;2023-09-08T02:58:34;15.75;;;8.82;;
80332;SDS011;69652;51.864;-2.246;2023-09-08T03:01:10;15.18;;;10.02;;
80332;SDS011;69652;51.864;-2.246;2023-09-08T03:03:42;17.90;;;11.85;;
80332;SDS011;69652;51.864;-2.246;2023-09-08T03:06:08;17.67;;;10.85;;
80332;SDS011;69652;51.864;-2.246;2023-09-08T03:08:34;14.80;;;9.50;;
80332;SDS011;69652;51.864;-2.246;2023-09-08T03:11:01;17.85;;;12.40;;
80332;SDS011;69652;51.864;-2.246;2023-09-08T03:13:28;15.88;;;9.95;;
80332;SDS011;69652;51.864;-2.246;2023-09-08T03:15:54;15.73;;;8.82;;
80332;SDS011;69652;51.864;-2.246;2023-09-08T03:18:20;11.68;;;8.40;;
80332;SDS011;69652;51.864;-2.246;2023-09-08T03:20:49;14.15;;;9.25;;
80332;SDS011;69652;51.864;-2.246;2023-09-08T03:23:15;8.95;;;6.38;;
80332;SDS011;69652;51.864;-2.246;2023-09-08T03:25:41;13.55;;;8.27;;
80332;SDS011;69652;51.864;-2.246;2023-09-08T03:28:07;9.77;;;6.30;;
80332;SDS011;69652;51.864;-2.246;2023-09-08T03:30:33;10.77;;;6.78;;
80332;SDS011;69652;51.864;-2.246;2023-09-08T03:32:58;11.63;;;8.05;;
80332;SDS011;69652;51.864;-2.246;2023-09-08T03:35:23;10.52;;;6.88;;
80332;SDS011;69652;51.864;-2.246;2023-09-08T03:37:49;10.75;;;7.15;;
80332;SDS011;69652;51.864;-2.246;2023-09-08T03:40:14;9.55;;;7.32;;
80332;SDS011;69652;51.864;-2.246;2023-09-08T03:42:40;9.60;;;7.32;;
80332;SDS011;69652;51.864;-2.246;2023-09-08T03:45:07;11.32;;;7.55;;
80332;SDS011;69652;51.864;-2.246;2023-09-08T03:47:32;13.30;;;8.73;;
80332;SDS011;69652;51.864;-2.246;2023-09-08T03:49:58;11.57;;;7.88;;
80332;SDS011;69652;51.864;-2.246;2023-09-08T03:52:23;11.18;;;8.32;;
80332;SDS011;69652;51.864;-2.246;2023-09-08T03:54:50;9.90;;;7.38;;
80332;SDS011;69652;51.864;-2.246;2023-09-08T03:57:15;11.95;;;8.40;;
80332;SDS011;69652;51.864;-2.246;2023-09-08T03:59:41;12.25;;;9.05;;
80332;SDS011;69652;51.864;-2.246;2023-09-08T04:02:06;13.00;;;9.68;;
80332;SDS011;69652;51.864;-2.246;2023-09-08T04:04:32;14.95;;;9.70;;
80332;SDS011;69652;51.864;-2.246;2023-09-08T04:06:57;16.83;;;10.20;;
80332;SDS011;69652;51.864;-2.246;2023-09-08T04:09:22;13.15;;;10.80;;
80332;SDS011;69652;51.864;-2.246;2023-09-08T04:11:48;14.45;;;8.80;;
80332;SDS011;69652;51.864;-2.246;2023-09-08T04:14:13;10.38;;;7.57;;
80332;SDS011;69652;51.864;-2.246;2023-09-08T04:16:39;12.18;;;9.68;;
80332;SDS011;69652;51.864;-2.246;2023-09-08T04:19:04;16.27;;;10.27;;
80332;SDS011;69652;51.864;-2.246;2023-09-08T04:21:30;13.30;;;9.18;;
80332;SDS011;69652;51.864;-2.246;2023-09-08T04:23:55;12.50;;;8.80;;
80332;SDS011;69652;51.864;-2.246;2023-09-08T04:26:20;12.18;;;9.20;;
80332;SDS011;69652;51.864;-2.246;2023-09-08T04:28:46;11.77;;;9.05;;
80332;SDS011;69652;51.864;-2.246;2023-09-08T04:31:11;12.70;;;7.82;;
80332;SDS011;69652;51.864;-2.246;2023-09-08T04:33:38;14.18;;;9.48;;
80332;SDS011;69652;51.864;-2.246;2023-09-08T04:36:04;10.50;;;8.48;;
80332;SDS011;69652;51.864;-2.246;2023-09-08T04:38:29;12.57;;;8.68;;
80332;SDS011;69652;51.864;-2.246;2023-09-08T04:40:55;10.90;;;7.60;;
80332;SDS011;69652;51.864;-2.246;2023-09-08T04:43:20;11.77;;;8.07;;
80332;SDS011;69652;51.864;-2.246;2023-09-08T04:45:46;12.73;;;8.48;;
80332;SDS011;69652;51.864;-2.246;2023-09-08T04:48:11;13.25;;;9.32;;
80332;SDS011;69652;51.864;-2.246;2023-09-08T04:50:37;15.98;;;10.90;;
80332;SDS011;69652;51.864;-2.246;2023-09-08T04:53:02;17.98;;;10.68;;
80332;SDS011;69652;51.864;-2.246;2023-09-08T04:55:28;16.17;;;10.60;;
80332;SDS011;69652;51.864;-2.246;2023-09-08T04:57:53;13.48;;;9.60;;
80332;SDS011;69652;51.864;-2.246;2023-09-08T05:00:19;12.05;;;8.35;;
80332;SDS011;69652;51.864;-2.246;2023-09-08T05:02:44;10.45;;;8.07;;
80332;SDS011;69652;51.864;-2.246;2023-09-08T05:05:10;12.68;;;8.18;;
80332;SDS011;69652;51.864;-2.246;2023-09-08T05:07:35;12.02;;;8.30;;
80332;SDS011;69652;51.864;-2.246;2023-09-08T05:10:01;9.35;;;6.63;;
80332;SDS011;69652;51.864;-2.246;2023-09-08T05:12:26;11.27;;;7.82;;
80332;SDS011;69652;51.864;-2.246;2023-09-08T05:14:52;14.43;;;8.48;;
80332;SDS011;69652;51.864;-2.246;2023-09-08T05:17:21;12.15;;;8.32;;
80332;SDS011;69652;51.864;-2.246;2023-09-08T05:19:48;11.27;;;8.30;;
80332;SDS011;69652;51.864;-2.246;2023-09-08T05:22:13;11.95;;;8.80;;
80332;SDS011;69652;51.864;-2.246;2023-09-08T05:24:39;14.15;;;8.35;;
80332;SDS011;69652;51.864;-2.246;2023-09-08T05:27:04;13.07;;;9.82;;
80332;SDS011;69652;51.864;-2.246;2023-09-08T05:29:30;11.63;;;8.00;;
80332;SDS011;69652;51.864;-2.246;2023-09-08T05:31:55;9.00;;;6.88;;
80332;SDS011;69652;51.864;-2.246;2023-09-08T05:34:21;14.02;;;9.63;;
80332;SDS011;69652;51.864;-2.246;2023-09-08T05:36:46;11.25;;;7.40;;
80332;SDS011;69652;51.864;-2.246;2023-09-08T05:39:13;13.45;;;10.30;;
80332;SDS011;69652;51.864;-2.246;2023-09-08T05:41:40;18.15;;;12.77;;
80332;SDS011;69652;51.864;-2.246;2023-09-08T05:44:05;15.52;;;11.75;;
80332;SDS011;69652;51.864;-2.246;2023-09-08T05:46:30;12.82;;;9.60;;
80332;SDS011;69652;51.864;-2.246;2023-09-08T05:48:56;15.77;;;11.10;;
80332;SDS011;69652;51.864;-2.246;2023-09-08T05:51:21;17.23;;;11.77;;
80332;SDS011;69652;51.864;-2.246;2023-09-08T05:53:47;13.90;;;9.73;;
80332;SDS011;69652;51.864;-2.246;2023-09-08T05:56:13;13.65;;;10.93;;
80332;SDS011;69652;51.864;-2.246;2023-09-08T05:58:38;12.60;;;9.55;;
80332;SDS011;69652;51.864;-2.246;2023-09-08T06:01:04;15.32;;;11.57;;
80332;SDS011;69652;51.864;-2.246;2023-09-08T06:03:29;15.27;;;11.52;;
80332;SDS011;69652;51.864;-2.246;2023-09-08T06:05:55;17.35;;;11.48;;
80332;SDS011;69652;51.864;-2.246;2023-09-08T06:08:21;14.30;;;10.68;;
80332;SDS011;69652;51.864;-2.246;2023-09-08T06:10:47;18.13;;;12.30;;
80332;SDS011;69652;51.864;-2.246;2023-09-08T06:13:12;17.65;;;12.98;;
80332;SDS011;69652;51.864;-2.246;2023-09-08T06:15:38;15.57;;;11.18;;
80332;SDS011;69652;51.864;-2.246;2023-09-08T06:18:03;14.55;;;10.68;;
80332;SDS011;69652;51.864;-2.246;2023-09-08T06:20:29;12.55;;;10.07;;
80332;SDS011;69652;51.864;-2.246;2023-09-08T06:22:55;16.75;;;11.52;;
80332;SDS011;69652;51.864;-2.246;2023-09-08T06:25:20;17.75;;;12.48;;
80332;SDS011;69652;51.864;-2.246;2023-09-08T06:27:46;16.15;;;12.52;;
80332;SDS011;69652;51.864;-2.246;2023-09-08T06:30:11;17.55;;;12.82;;
80332;SDS011;69652;51.864;-2.246;2023-09-08T06:32:41;10.68;;;8.77;;
80332;SDS011;69652;51.864;-2.246;2023-09-08T06:35:07;11.52;;;9.13;;
80332;SDS011;69652;51.864;-2.246;2023-09-08T06:37:36;16.40;;;11.52;;
80332;SDS011;69652;51.864;-2.246;2023-09-08T06:40:03;13.27;;;10.65;;
80332;SDS011;69652;51.864;-2.246;2023-09-08T06:42:29;14.30;;;10.30;;
80332;SDS011;69652;51.864;-2.246;2023-09-08T06:44:54;16.70;;;11.80;;
80332;SDS011;69652;51.864;-2.246;2023-09-08T06:47:20;16.13;;;11.88;;
80332;SDS011;69652;51.864;-2.246;2023-09-08T06:49:45;17.33;;;12.68;;
80332;SDS011;69652;51.864;-2.246;2023-09-08T06:52:12;19.08;;;14.02;;
80332;SDS011;69652;51.864;-2.246;2023-09-08T06:54:37;22.10;;;13.77;;
80332;SDS011;69652;51.864;-2.246;2023-09-08T06:57:03;17.50;;;12.57;;
80332;SDS011;69652;51.864;-2.246;2023-09-08T06:59:28;18.42;;;13.48;;
80332;SDS011;69652;51.864;-2.246;2023-09-08T07:01:54;18.45;;;14.40;;
80332;SDS011;69652;51.864;-2.246;2023-09-08T07:04:19;16.33;;;13.18;;
80332;SDS011;69652;51.864;-2.246;2023-09-08T07:06:45;18.20;;;14.73;;
80332;SDS011;69652;51.864;-2.246;2023-09-08T07:09:11;19.27;;;14.15;;
80332;SDS011;69652;51.864;-2.246;2023-09-08T07:11:37;17.65;;;12.90;;
80332;SDS011;69652;51.864;-2.246;2023-09-08T07:14:03;26.08;;;18.10;;
80332;SDS011;69652;51.864;-2.246;2023-09-08T07:16:28;24.05;;;16.55;;
80332;SDS011;69652;51.864;-2.246;2023-09-08T07:18:53;20.02;;;15.40;;
80332;SDS011;69652;51.864;-2.246;2023-09-08T07:21:19;24.98;;;14.95;;
80332;SDS011;69652;51.864;-2.246;2023-09-08T07:23:44;18.63;;;13.60;;
80332;SDS011;69652;51.864;-2.246;2023-09-08T07:26:10;22.70;;;14.68;;
80332;SDS011;69652;51.864;-2.246;2023-09-08T07:28:35;16.38;;;12.27;;
80332;SDS011;69652;51.864;-2.246;2023-09-08T07:31:04;16.70;;;12.52;;
80332;SDS011;69652;51.864;-2.246;2023-09-08T07:33:30;12.18;;;9.63;;
80332;SDS011;69652;51.864;-2.246;2023-09-08T07:35:56;13.48;;;9.93;;
80332;SDS011;69652;51.864;-2.246;2023-09-08T07:38:21;27.48;;;16.60;;
80332;SDS011;69652;51.864;-2.246;2023-09-08T07:40:47;13.93;;;10.05;;
80332;SDS011;69652;51.864;-2.246;2023-09-08T07:43:12;16.63;;;11.52;;
80332;SDS011;69652;51.864;-2.246;2023-09-08T07:45:38;25.23;;;15.82;;
80332;SDS011;69652;51.864;-2.246;2023-09-08T07:48:05;21.33;;;11.98;;
80332;SDS011;69652;51.864;-2.246;2023-09-08T07:50:31;17.92;;;12.68;;
80332;SDS011;69652;51.864;-2.246;2023-09-08T07:52:57;18.20;;;12.32;;
80332;SDS011;69652;51.864;-2.246;2023-09-08T07:55:23;17.60;;;11.55;;
80332;SDS011;69652;51.864;-2.246;2023-09-08T07:57:52;17.15;;;11.23;;
80332;SDS011;69652;51.864;-2.246;2023-09-08T08:00:18;16.50;;;10.07;;
80332;SDS011;69652;51.864;-2.246;2023-09-08T08:02:48;19.45;;;13.55;;
80332;SDS011;69652;51.864;-2.246;2023-09-08T08:05:15;24.17;;;16.67;;
80332;SDS011;69652;51.864;-2.246;2023-09-08T08:07:41;18.85;;;13.65;;
80332;SDS011;69652;51.864;-2.246;2023-09-08T08:10:07;16.45;;;11.88;;
80332;SDS011;69652;51.864;-2.246;2023-09-08T08:12:33;19.80;;;14.88;;
80332;SDS011;69652;51.864;-2.246;2023-09-08T08:14:59;14.77;;;11.32;;
80332;SDS011;69652;51.864;-2.246;2023-09-08T08:17:25;16.17;;;11.10;;
80332;SDS011;69652;51.864;-2.246;2023-09-08T08:19:52;18.00;;;11.32;;
80332;SDS011;69652;51.864;-2.246;2023-09-08T08:22:19;16.23;;;10.85;;
80332;SDS011;69652;51.864;-2.246;2023-09-08T08:24:45;15.90;;;10.40;;
80332;SDS011;69652;51.864;-2.246;2023-09-08T08:27:11;14.63;;;10.60;;
80332;SDS011;69652;51.864;-2.246;2023-09-08T08:29:36;14.38;;;10.63;;
80332;SDS011;69652;51.864;-2.246;2023-09-08T08:32:02;10.35;;;8.50;;
80332;SDS011;69652;51.864;-2.246;2023-09-08T08:34:27;17.92;;;12.38;;
80332;SDS011;69652;51.864;-2.246;2023-09-08T08:36:53;13.00;;;10.07;;
80332;SDS011;69652;51.864;-2.246;2023-09-08T08:39:19;12.93;;;8.63;;
80332;SDS011;69652;51.864;-2.246;2023-09-08T08:41:45;15.38;;;11.15;;
80332;SDS011;69652;51.864;-2.246;2023-09-08T08:44:10;20.27;;;14.60;;
80332;SDS011;69652;51.864;-2.246;2023-09-08T08:46:36;15.07;;;10.20;;
80332;SDS011;69652;51.864;-2.246;2023-09-08T08:49:03;16.58;;;12.15;;
80332;SDS011;69652;51.864;-2.246;2023-09-08T08:51:32;11.52;;;8.63;;
80332;SDS011;69652;51.864;-2.246;2023-09-08T08:54:00;12.00;;;7.80;;
80332;SDS011;69652;51.864;-2.246;2023-09-08T08:56:30;13.00;;;9.45;;
80332;SDS011;69652;51.864;-2.246;2023-09-08T08:58:57;11.88;;;8.43;;
80332;SDS011;69652;51.864;-2.246;2023-09-08T09:01:23;15.30;;;9.93;;
80332;SDS011;69652;51.864;-2.246;2023-09-08T09:03:51;16.23;;;12.07;;
80332;SDS011;69652;51.864;-2.246;2023-09-08T09:06:17;21.85;;;14.40;;
80332;SDS011;69652;51.864;-2.246;2023-09-08T09:08:43;20.17;;;15.10;;
80332;SDS011;69652;51.864;-2.246;2023-09-08T09:11:10;14.80;;;10.30;;
80332;SDS011;69652;51.864;-2.246;2023-09-08T09:13:36;15.55;;;11.45;;
80332;SDS011;69652;51.864;-2.246;2023-09-08T09:16:03;21.83;;;12.73;;
80332;SDS011;69652;51.864;-2.246;2023-09-08T09:18:32;17.95;;;12.80;;
80332;SDS011;69652;51.864;-2.246;2023-09-08T09:21:01;13.95;;;8.15;;
80332;SDS011;69652;51.864;-2.246;2023-09-08T09:23:33;19.50;;;13.02;;
80332;SDS011;69652;51.864;-2.246;2023-09-08T09:26:00;14.70;;;8.48;;
80332;SDS011;69652;51.864;-2.246;2023-09-08T09:28:29;14.30;;;10.93;;
80332;SDS011;69652;51.864;-2.246;2023-09-08T09:30:55;10.95;;;7.97;;
80332;SDS011;69652;51.864;-2.246;2023-09-08T09:33:21;10.32;;;7.40;;
80332;SDS011;69652;51.864;-2.246;2023-09-08T09:35:48;12.07;;;8.50;;
80332;SDS011;69652;51.864;-2.246;2023-09-08T09:38:19;12.00;;;8.32;;
80332;SDS011;69652;51.864;-2.246;2023-09-08T09:40:46;14.70;;;10.80;;
80332;SDS011;69652;51.864;-2.246;2023-09-08T09:43:13;15.88;;;10.73;;
80332;SDS011;69652;51.864;-2.246;2023-09-08T09:45:40;11.98;;;9.32;;
80332;SDS011;69652;51.864;-2.246;2023-09-08T09:48:07;14.23;;;10.35;;
80332;SDS011;69652;51.864;-2.246;2023-09-08T09:50:35;10.93;;;7.75;;
80332;SDS011;69652;51.864;-2.246;2023-09-08T09:53:07;11.60;;;7.65;;
80332;SDS011;69652;51.864;-2.246;2023-09-08T09:55:34;15.02;;;9.95;;
80332;SDS011;69652;51.864;-2.246;2023-09-08T09:58:02;12.02;;;7.35;;
80332;SDS011;69652;51.864;-2.246;2023-09-08T10:00:29;12.55;;;9.10;;
80332;SDS011;69652;51.864;-2.246;2023-09-08T10:02:58;16.58;;;10.95;;
80332;SDS011;69652;51.864;-2.246;2023-09-08T10:05:24;16.42;;;10.52;;
80332;SDS011;69652;51.864;-2.246;2023-09-08T10:07:50;12.50;;;8.73;;
80332;SDS011;69652;51.864;-2.246;2023-09-08T10:10:16;10.70;;;7.22;;
80332;SDS011;69652;51.864;-2.246;2023-09-08T10:12:49;15.05;;;8.98;;
80332;SDS011;69652;51.864;-2.246;2023-09-08T10:15:20;13.40;;;7.47;;
80332;SDS011;69652;51.864;-2.246;2023-09-08T10:17:49;10.57;;;6.65;;
80332;SDS011;69652;51.864;-2.246;2023-09-08T10:20:22;12.32;;;8.98;;
80332;SDS011;69652;51.864;-2.246;2023-09-08T10:22:50;15.38;;;9.05;;
80332;SDS011;69652;51.864;-2.246;2023-09-08T10:25:21;10.82;;;8.25;;
80332;SDS011;69652;51.864;-2.246;2023-09-08T10:27:50;9.57;;;6.68;;
80332;SDS011;69652;51.864;-2.246;2023-09-08T10:30:16;11.77;;;8.05;;
80332;SDS011;69652;51.864;-2.246;2023-09-08T10:32:42;13.82;;;9.10;;
80332;SDS011;69652;51.864;-2.246;2023-09-08T10:35:09;13.65;;;6.63;;
80332;SDS011;69652;51.864;-2.246;2023-09-08T10:37:35;13.88;;;7.20;;
80332;SDS011;69652;51.864;-2.246;2023-09-08T10:42:47;13.00;;;8.05;;
80332;SDS011;69652;51.864;-2.246;2023-09-08T10:45:16;11.80;;;7.15;;
80332;SDS011;69652;51.864;-2.246;2023-09-08T10:50:16;12.27;;;6.95;;
80332;SDS011;69652;51.864;-2.246;2023-09-08T10:52:43;9.10;;;6.85;;
80332;SDS011;69652;51.864;-2.246;2023-09-08T10:55:09;10.52;;;6.03;;
80332;SDS011;69652;51.864;-2.246;2023-09-08T10:57:36;13.25;;;6.90;;
80332;SDS011;69652;51.864;-2.246;2023-09-08T11:00:02;11.52;;;6.35;;
80332;SDS011;69652;51.864;-2.246;2023-09-08T11:02:49;9.52;;;5.88;;
80332;SDS011;69652;51.864;-2.246;2023-09-08T11:05:15;11.77;;;7.22;;
80332;SDS011;69652;51.864;-2.246;2023-09-08T11:07:44;9.30;;;5.72;;
80332;SDS011;69652;51.864;-2.246;2023-09-08T11:10:10;8.07;;;4.70;;
80332;SDS011;69652;51.864;-2.246;2023-09-08T11:12:37;10.68;;;7.60;;
80332;SDS011;69652;51.864;-2.246;2023-09-08T11:15:03;7.45;;;4.85;;
80332;SDS011;69652;51.864;-2.246;2023-09-08T11:17:31;8.60;;;5.72;;
80332;SDS011;69652;51.864;-2.246;2023-09-08T11:19:57;9.25;;;6.22;;
80332;SDS011;69652;51.864;-2.246;2023-09-08T11:22:23;11.07;;;7.22;;
80332;SDS011;69652;51.864;-2.246;2023-09-08T11:24:55;10.52;;;6.85;;
80332;SDS011;69652;51.864;-2.246;2023-09-08T11:27:24;15.27;;;8.17;;
80332;SDS011;69652;51.864;-2.246;2023-09-08T11:29:49;8.10;;;4.43;;
80332;SDS011;69652;51.864;-2.246;2023-09-08T11:32:16;10.38;;;6.35;;
80332;SDS011;69652;51.864;-2.246;2023-09-08T11:34:41;8.35;;;4.88;;
80332;SDS011;69652;51.864;-2.246;2023-09-08T11:37:10;9.02;;;4.70;;
80332;SDS011;69652;51.864;-2.246;2023-09-08T11:39:41;8.10;;;4.05;;
80332;SDS011;69652;51.864;-2.246;2023-09-08T11:42:08;9.68;;;4.20;;
80332;SDS011;69652;51.864;-2.246;2023-09-08T11:44:35;11.23;;;5.45;;
80332;SDS011;69652;51.864;-2.246;2023-09-08T11:47:01;10.00;;;5.32;;
80332;SDS011;69652;51.864;-2.246;2023-09-08T11:49:33;11.48;;;6.50;;
80332;SDS011;69652;51.864;-2.246;2023-09-08T11:51:59;10.88;;;5.00;;
80332;SDS011;69652;51.864;-2.246;2023-09-08T11:54:24;9.05;;;4.47;;
80332;SDS011;69652;51.864;-2.246;2023-09-08T11:56:50;6.18;;;3.85;;
80332;SDS011;69652;51.864;-2.246;2023-09-08T11:59:17;8.02;;;4.57;;
80332;SDS011;69652;51.864;-2.246;2023-09-08T12:01:43;8.63;;;3.83;;
80332;SDS011;69652;51.864;-2.246;2023-09-08T12:04:13;9.45;;;4.20;;
80332;SDS011;69652;51.864;-2.246;2023-09-08T12:06:42;7.18;;;4.43;;
80332;SDS011;69652;51.864;-2.246;2023-09-08T12:09:07;7.10;;;3.92;;
80332;SDS011;69652;51.864;-2.246;2023-09-08T12:11:33;10.43;;;3.92;;
80332;SDS011;69652;51.864;-2.246;2023-09-08T12:14:06;12.13;;;5.93;;
80332;SDS011;69652;51.864;-2.246;2023-09-08T12:16:32;15.43;;;11.88;;
80332;SDS011;69652;51.864;-2.246;2023-09-08T12:18:58;11.70;;;5.38;;
80332;SDS011;69652;51.864;-2.246;2023-09-08T12:21:24;7.53;;;4.07;;
80332;SDS011;69652;51.864;-2.246;2023-09-08T12:23:49;19.48;;;10.48;;
80332;SDS011;69652;51.864;-2.246;2023-09-08T12:26:16;6.38;;;3.95;;
80332;SDS011;69652;51.864;-2.246;2023-09-08T12:28:42;6.43;;;3.55;;
80332;SDS011;69652;51.864;-2.246;2023-09-08T12:31:08;8.00;;;4.00;;
80332;SDS011;69652;51.864;-2.246;2023-09-08T12:33:35;7.03;;;2.90;;
80332;SDS011;69652;51.864;-2.246;2023-09-08T12:36:14;8.07;;;4.20;;
80332;SDS011;69652;51.864;-2.246;2023-09-08T12:38:46;8.18;;;3.83;;
80332;SDS011;69652;51.864;-2.246;2023-09-08T12:41:12;6.55;;;3.88;;
80332;SDS011;69652;51.864;-2.246;2023-09-08T12:43:38;11.18;;;4.65;;
80332;SDS011;69652;51.864;-2.246;2023-09-08T12:46:03;8.27;;;3.55;;
80332;SDS011;69652;51.864;-2.246;2023-09-08T12:48:29;10.45;;;3.97;;
80332;SDS011;69652;51.864;-2.246;2023-09-08T12:50:54;4.80;;;3.08;;
80332;SDS011;69652;51.864;-2.246;2023-09-08T12:53:19;6.90;;;3.50;;
80332;SDS011;69652;51.864;-2.246;2023-09-08T12:55:46;11.93;;;3.40;;
80332;SDS011;69652;51.864;-2.246;2023-09-08T12:58:12;10.82;;;6.68;;
80332;SDS011;69652;51.864;-2.246;2023-09-08T13:00:38;14.20;;;7.85;;
80332;SDS011;69652;51.864;-2.246;2023-09-08T13:03:03;6.07;;;3.42;;
80332;SDS011;69652;51.864;-2.246;2023-09-08T13:05:29;8.95;;;3.10;;
80332;SDS011;69652;51.864;-2.246;2023-09-08T13:07:55;8.80;;;3.08;;
80332;SDS011;69652;51.864;-2.246;2023-09-08T13:10:21;6.40;;;2.83;;
80332;SDS011;69652;51.864;-2.246;2023-09-08T13:12:47;5.78;;;2.50;;
80332;SDS011;69652;51.864;-2.246;2023-09-08T13:15:13;12.25;;;3.35;;
80332;SDS011;69652;51.864;-2.246;2023-09-08T13:17:39;9.52;;;3.05;;
80332;SDS011;69652;51.864;-2.246;2023-09-08T13:20:05;8.10;;;2.70;;
80332;SDS011;69652;51.864;-2.246;2023-09-08T13:22:32;6.13;;;3.45;;
80332;SDS011;69652;51.864;-2.246;2023-09-08T13:24:58;9.70;;;5.10;;
80332;SDS011;69652;51.864;-2.246;2023-09-08T13:27:23;8.93;;;3.03;;
80332;SDS011;69652;51.864;-2.246;2023-09-08T13:29:49;7.95;;;3.88;;
80332;SDS011;69652;51.864;-2.246;2023-09-08T13:32:15;8.70;;;3.17;;
80332;SDS011;69652;51.864;-2.246;2023-09-08T13:34:40;12.15;;;2.65;;
80332;SDS011;69652;51.864;-2.246;2023-09-08T13:37:08;5.88;;;2.47;;
80332;SDS011;69652;51.864;-2.246;2023-09-08T13:39:37;6.30;;;2.65;;
80332;SDS011;69652;51.864;-2.246;2023-09-08T13:42:03;6.28;;;3.10;;
80332;SDS011;69652;51.864;-2.246;2023-09-08T13:44:28;6.97;;;2.58;;
80332;SDS011;69652;51.864;-2.246;2023-09-08T13:46:54;8.20;;;2.30;;
80332;SDS011;69652;51.864;-2.246;2023-09-08T13:49:20;7.55;;;3.30;;
80332;SDS011;69652;51.864;-2.246;2023-09-08T13:51:46;11.98;;;2.83;;
80332;SDS011;69652;51.864;-2.246;2023-09-08T13:54:12;6.00;;;2.97;;
80332;SDS011;69652;51.864;-2.246;2023-09-08T13:56:38;7.72;;;3.05;;
80332;SDS011;69652;51.864;-2.246;2023-09-08T13:59:04;7.57;;;3.97;;
80332;SDS011;69652;51.864;-2.246;2023-09-08T14:01:32;11.90;;;5.60;;
80332;SDS011;69652;51.864;-2.246;2023-09-08T14:03:58;8.98;;;3.22;;
80332;SDS011;69652;51.864;-2.246;2023-09-08T14:06:25;10.80;;;3.22;;
80332;SDS011;69652;51.864;-2.246;2023-09-08T14:08:51;8.07;;;2.70;;
80332;SDS011;69652;51.864;-2.246;2023-09-08T14:11:17;10.38;;;4.05;;
80332;SDS011;69652;51.864;-2.246;2023-09-08T14:13:43;9.65;;;2.90;;
80332;SDS011;69652;51.864;-2.246;2023-09-08T14:16:09;8.65;;;2.50;;
80332;SDS011;69652;51.864;-2.246;2023-09-08T14:18:35;6.70;;;2.67;;
80332;SDS011;69652;51.864;-2.246;2023-09-08T14:21:01;6.95;;;2.30;;
80332;SDS011;69652;51.864;-2.246;2023-09-08T14:23:27;9.02;;;2.75;;
80332;SDS011;69652;51.864;-2.246;2023-09-08T14:25:54;7.60;;;3.00;;